Latest Weather Observations for Amberley

IDQ60901

Issued at 9:51 pm EST Wednesday 28 September 2016 (issued every 10 minutes, with the page automatically refreshed every 10 minutes)

About weather observations | Map of Brisbane area stations | Latest observations for Brisbane area | Other Formats
Station Details ID: 040004 Name: AMBERLEY AMO Lat: -27.63 Lon: 152.71 Height: 24.2 m
Data from the previous 72 hours. | See also: Recent months at Amberley
Date/Time
EST
Temp
°C
App
Temp
°C
Dew
Point
°C
Rel
Hum
%
Delta-T
°C
Wind Press
QNH
hPa
Press
MSL
hPa
Rain since
9am
mm
Dir  Spd
km/h
Gust
km/h
Spd
kts
Gust
kts
28/09:30pm 17.4 17.4 14.1 81 1.9 SE 7 9 4 5 1012.6 1012.5 0.0
28/09:00pm 17.8 17.5 14.3 80 2.0 SE 9 11 5 6 1012.5 1012.4 0.0
28/08:30pm 19.1 18.6 14.8 76 2.5 E 11 15 6 8 1012.1 1012.0 0.0
28/08:00pm 19.4 17.7 14.8 75 2.7 E 17 26 9 14 1011.7 1011.6 0.0
28/07:30pm 19.9 17.6 14.6 71 3.1 ENE 20 28 11 15 1011.2 1011.1 0.0
28/07:00pm 20.1 17.3 14.2 69 3.4 ENE 22 28 12 15 1011.3 1011.2 0.0
28/06:30pm 20.3 17.0 13.9 66 3.7 ENE 24 39 13 21 1011.1 1011.0 0.0
28/06:00pm 20.8 16.3 13.7 64 4.1 ENE 30 39 16 21 1011.0 1010.9 0.0
28/05:30pm 21.6 16.8 13.0 58 4.9 ENE 30 37 16 20 1010.3 1010.2 0.0
28/05:00pm 22.5 16.7 10.7 47 6.5 NE 32 44 17 24 1010.2 1010.1 0.0
28/04:30pm 23.2 16.9 8.8 39 7.7 NE 32 41 17 22 1009.6 1009.5 0.0
28/04:00pm 24.0 18.1 9.0 38 8.1 ENE 30 41 16 22 1008.9 1008.8 0.0
28/03:30pm 26.3 22.2 8.6 32 9.6 NNE 20 35 11 19 1008.7 1008.6 0.0
28/03:00pm 26.7 24.9 7.1 28 10.4 E 6 19 3 10 1008.9 1008.8 0.0
28/02:30pm 27.6 25.7 6.6 26 11.1 SE 6 11 3 6 1009.2 1009.1 0.0
28/02:00pm 26.4 23.3 7.4 30 10.1 N 13 22 7 12 1009.6 1009.5 0.0
28/01:30pm 26.8 25.4 5.5 25 11.0 NNW 2 15 1 8 1010.4 1010.3 0.0
28/01:00pm 26.5 23.5 5.8 26 10.7 NNW 11 15 6 8 1010.8 1010.7 0.0
28/12:30pm 26.5 22.9 6.7 28 10.4 W 15 26 8 14 1011.5 1011.4 0.0
28/12:00pm 25.6 22.2 5.8 28 10.2 NW 13 19 7 10 1011.8 1011.7 0.0
28/11:30am 24.9 23.0 6.9 31 9.4 WNW 6 13 3 7 1012.6 1012.5 0.0
28/11:00am 25.0 22.7 5.9 29 9.8 N 7 11 4 6 1013.0 1012.9 0.0
28/10:30am 24.4 22.2 6.4 31 9.3 ESE 7 13 4 7 1013.5 1013.4 0.0
28/10:00am 24.2 21.6 6.3 31 9.2 NE 9 15 5 8 1013.6 1013.5 0.0
28/09:30am 23.6 22.0 8.1 37 8.2 N 6 11 3 6 1013.8 1013.7 0.0
28/09:00am 22.0 19.6 7.0 38 7.7 N 9 13 5 7 1013.9 1013.8 0.0
28/08:30am 20.8 18.5 7.4 42 6.9 NNW 9 15 5 8 1014.0 1013.9 0.0
28/08:00am 19.1 17.7 7.3 46 6.0 N 4 9 2 5 1014.1 1014.0 0.0
28/07:30am 16.8 16.9 10.0 64 3.6 CALM 0 0 0 0 1014.0 1013.9 0.0
28/07:00am 15.5 15.2 8.8 64 3.4 CALM 0 7 0 4 1013.5 1013.4 0.0
28/06:30am 11.4 10.7 8.4 82 1.5 SW 2 7 1 4 1012.9 1012.8 0.0
28/06:00am 8.5 7.7 6.3 86 1.0 CALM 0 0 0 0 1012.6 1012.5 0.0
28/05:30am 8.0 7.2 6.7 91 0.6 CALM 0 0 0 0 1012.2 1012.1 0.0
28/05:00am 8.1 6.5 6.4 89 0.8 SSW 4 7 2 4 1011.9 1011.8 0.0
28/04:30am 9.4 7.5 6.6 83 1.3 SSW 6 11 3 6 1011.6 1011.5 0.0
28/04:00am 8.8 8.0 6.6 86 1.0 CALM 0 0 0 0 1011.3 1011.2 0.0
28/03:30am 8.9 8.2 7.0 88 0.9 CALM 0 0 0 0 1011.1 1011.0 0.0
28/03:00am 8.9 8.2 7.0 88 0.9 CALM 0 0 0 0 1011.0 1010.9 0.0
28/02:30am 9.3 8.6 7.0 85 1.1 CALM 0 0 0 0 1011.1 1011.0 0.0
28/02:00am 10.2 9.4 6.3 77 1.8 CALM 0 0 0 0 1011.3 1011.2 0.0
28/01:30am 10.5 9.8 7.1 79 1.6 CALM 0 0 0 0 1011.4 1011.3 0.0
28/01:00am 11.0 10.4 7.5 79 1.7 CALM 0 0 0 0 1011.6 1011.5 0.0
28/12:30am 11.0 10.4 7.5 79 1.7 CALM 0 0 0 0 1011.7 1011.6 0.0
28/12:00am 11.2 9.3 7.7 79 1.7 E 7 9 4 5 1011.9 1011.8 0.0
 
Date/Time
EST
Temp
°C
App
Temp
°C
Dew
Point
°C
Rel
Hum
%
Delta-T
°C
Wind Press
QNH
hPa
Press
MSL
hPa
Rain since
9am
mm
Dir  Spd
km/h
Gust
km/h
Spd
kts
Gust
kts
27/11:30pm 11.4 10.8 7.2 75 2.0 CALM 0 0 0 0 1012.1 1012.0 0.0
27/11:00pm 11.8 11.1 7.0 72 2.3 CALM 0 0 0 0 1012.2 1012.1 0.0
27/10:30pm 12.4 10.5 6.5 67 2.8 NNW 6 11 3 6 1012.4 1012.3 0.0
27/10:00pm 12.7 10.6 6.6 66 2.9 NW 7 9 4 5 1012.4 1012.3 0.0
27/09:30pm 14.3 12.0 5.7 56 4.1 N 7 7 4 4 1012.6 1012.5 0.0
27/09:00pm 16.4 14.4 4.5 45 5.6 N 4 7 2 4 1012.8 1012.7 0.0
27/08:30pm 19.8 16.7 3.6 34 7.7 WSW 9 17 5 9 1012.6 1012.5 0.0
27/08:00pm 19.9 15.2 3.1 33 7.9 W 17 19 9 10 1012.4 1012.3 0.0
27/07:30pm 19.3 15.8 3.7 35 7.4 W 11 15 6 8 1012.2 1012.1 0.0
27/07:00pm 18.2 15.2 4.3 39 6.6 NNW 9 11 5 6 1012.0 1011.9 0.0
27/06:30pm 20.6 18.5 3.7 33 8.1 SSW 4 9 2 5 1011.8 1011.7 0.0
27/06:00pm 22.1 18.0 2.0 26 9.4 SW 13 19 7 10 1011.4 1011.3 0.0
27/05:30pm 23.6 18.5 1.0 22 10.5 WSW 17 24 9 13 1010.9 1010.8 0.0
27/05:00pm 24.8 18.2 -0.7 18 11.6 WSW 24 32 13 17 1010.5 1010.4 0.0
27/04:30pm 25.5 19.7 -0.4 18 11.9 WSW 20 28 11 15 1010.2 1010.1 0.0
27/04:00pm 26.3 21.1 0.2 18 12.2 SW 17 28 9 15 1010.0 1009.9 0.0
27/03:30pm 26.3 20.7 -0.2 17 12.3 WSW 19 28 10 15 1009.9 1009.8 0.0
27/03:00pm 25.8 23.1 2.9 22 11.2 S 6 11 3 6 1010.1 1010.0 0.0
27/02:30pm 25.3 22.4 2.6 23 11.0 NNW 7 15 4 8 1010.3 1010.2 0.0
27/02:00pm 24.8 20.6 1.6 22 11.0 N 13 22 7 12 1010.5 1010.4 0.0
27/01:30pm 24.9 22.4 3.6 25 10.5 SE 6 11 3 6 1011.2 1011.1 0.0
27/01:00pm 24.2 21.4 2.9 25 10.3 N 7 17 4 9 1011.8 1011.7 0.0
27/12:30pm 24.6 21.8 3.3 25 10.4 WSW 7 15 4 8 1012.3 1012.2 0.0
27/12:00pm 22.8 19.5 2.6 26 9.6 NNE 9 15 5 8 1012.5 1012.4 0.0
27/11:30am 22.4 20.4 2.2 26 9.5 NW 2 9 1 5 1013.2 1013.1 0.0
27/11:00am 22.2 19.7 3.8 30 8.9 S 6 13 3 7 1013.7 1013.6 0.0
27/10:30am 21.3 18.5 2.9 29 8.7 WSW 7 11 4 6 1014.3 1014.2 0.0
27/10:00am 20.3 18.1 3.1 32 8.1 WSW 4 9 2 5 1014.6 1014.5 0.0
27/09:30am 20.3 17.1 2.8 31 8.2 SSE 9 15 5 8 1014.9 1014.9 0.0
27/09:00am 19.0 16.5 4.7 39 6.9 SSW 7 13 4 7 1015.1 1015.1 0.0
27/08:30am 18.1 15.6 5.0 42 6.3 W 7 11 4 6 1015.0 1015.0 0.0
27/08:00am 16.3 13.3 6.2 51 4.9 N 11 15 6 8 1015.1 1015.1 0.0
27/07:30am 16.1 13.4 5.7 50 5.0 W 9 13 5 7 1014.8 1014.7 0.0
27/07:00am 14.8 12.4 6.8 58 3.9 NW 9 11 5 6 1014.1 1014.0 0.0
27/06:30am 13.6 11.2 7.0 64 3.2 NW 9 9 5 5 1013.6 1013.5 0.0
27/06:00am 12.7 9.5 6.9 68 2.8 NW 13 15 7 8 1013.5 1013.4 0.0
27/05:30am 11.9 9.4 6.6 70 2.5 NNW 9 13 5 7 1012.8 1012.7 0.0
27/05:00am 12.2 9.0 6.8 69 2.6 NW 13 15 7 8 1012.4 1012.3 0.0
27/04:30am 12.9 10.3 7.6 70 2.6 N 11 15 6 8 1011.8 1011.7 0.0
27/04:00am 13.6 11.1 6.5 62 3.4 E 9 13 5 7 1011.8 1011.7 0.0
27/03:30am 15.8 12.0 5.6 50 4.9 W 15 24 8 13 1011.6 1011.5 0.0
27/03:00am 16.8 13.7 5.4 47 5.5 WSW 11 13 6 7 1011.4 1011.3 0.0
27/02:30am 13.3 11.2 8.3 72 2.5 NW 9 11 5 6 1011.6 1011.5 0.0
27/02:00am 13.4 11.7 8.2 71 2.6 N 7 9 4 5 1012.1 1012.0 0.0
27/01:30am 14.2 11.9 7.3 63 3.4 N 9 13 5 7 1012.2 1012.1 0.0
27/01:00am 15.1 12.1 7.7 61 3.7 W 13 15 7 8 1012.4 1012.3 0.0
27/12:30am 17.6 14.4 7.0 50 5.3 WSW 13 17 7 9 1012.1 1012.0 0.0
27/12:00am 18.5 16.1 7.0 47 5.8 SW 9 11 5 6 1012.6 1012.5 0.0
 
Date/Time
EST
Temp
°C
App
Temp
°C
Dew
Point
°C
Rel
Hum
%
Delta-T
°C
Wind Press
QNH
hPa
Press
MSL
hPa
Rain since
9am
mm
Dir  Spd
km/h
Gust
km/h
Spd
kts
Gust
kts
26/11:30pm 18.3 17.4 7.7 50 5.4 SW 2 7 1 4 1012.5 1012.4 0.0
26/11:00pm 19.6 16.4 6.7 43 6.5 WSW 13 20 7 11 1012.6 1012.5 0.0
26/10:30pm 19.1 15.9 7.0 45 6.1 W 13 17 7 9 1012.5 1012.4 0.0
26/10:00pm 19.5 15.5 6.5 42 6.5 W 17 20 9 11 1012.4 1012.3 0.0
26/09:30pm 20.4 16.2 5.7 38 7.3 W 17 22 9 12 1012.3 1012.2 0.0
26/09:00pm 21.0 16.1 5.2 35 7.8 W 20 28 11 15 1011.9 1011.8 0.0
26/08:30pm 21.2 16.5 5.2 35 7.9 W 19 28 10 15 1011.6 1011.5 0.0
26/08:00pm 20.9 17.1 5.6 36 7.6 WNW 15 22 8 12 1011.2 1011.1 0.0
26/07:30pm 18.6 16.9 9.7 56 4.7 NW 9 11 5 6 1010.9 1010.8 0.0
26/07:00pm 20.7 18.6 6.7 40 7.1 NNW 7 7 4 4 1010.5 1010.4 0.0
26/06:30pm 20.9 18.6 7.3 41 7.0 W 9 11 5 6 1010.4 1010.3 0.0
26/06:00pm 21.4 18.2 6.7 38 7.5 WNW 13 17 7 9 1009.8 1009.7 0.0
26/05:30pm 23.1 19.5 5.1 31 9.0 W 13 19 7 10 1009.7 1009.6 0.0
26/05:00pm 24.2 19.6 3.6 26 10.1 W 17 24 9 13 1009.3 1009.2 0.0
26/04:30pm 25.1 19.9 2.6 23 10.9 W 19 30 10 16 1009.2 1009.1 0.0
26/04:00pm 26.2 20.6 3.4 23 11.3 WNW 22 32 12 17 1008.8 1008.7 0.0
26/03:30pm 27.3 22.9 4.5 23 11.6 WNW 17 26 9 14 1008.6 1008.5 0.0
26/03:00pm 27.4 22.9 4.0 22 11.8 WSW 17 28 9 15 1008.6 1008.5 0.0
26/02:30pm 26.3 23.0 4.6 24 11.0 WNW 11 19 6 10 1008.9 1008.8 0.0
26/02:00pm 25.9 23.2 5.4 27 10.5 NE 9 20 5 11 1009.4 1009.3 0.0
26/01:30pm 25.5 22.0 5.6 28 10.2 WNW 13 22 7 12 1010.0 1009.9 0.0
26/01:00pm 24.5 20.6 5.4 29 9.7 NW 15 26 8 14 1010.2 1010.1 0.0
26/12:30pm 24.8 22.7 5.6 29 9.8 WSW 6 11 3 6 1010.7 1010.6 0.0
26/12:00pm 24.1 20.4 4.4 28 9.8 NW 13 20 7 11 1011.4 1011.3 0.0
26/11:30am 24.3 21.4 4.7 28 9.8 ESE 9 17 5 9 1011.8 1011.7 0.0
26/11:00am 24.0 21.4 6.0 31 9.2 E 9 15 5 8 1012.5 1012.4 0.0
26/10:30am 23.2 19.4 4.0 28 9.4 S 13 22 7 12 1013.0 1012.9 0.0
26/10:00am 23.3 20.6 5.7 32 8.9 SSW 9 20 5 11 1013.2 1013.1 0.0
26/09:30am 22.6 19.8 7.1 36 8.0 SSW 11 19 6 10 1013.6 1013.5 0.0
26/09:00am 20.9 19.2 8.5 45 6.5 WSW 7 15 4 8 1013.8 1013.7 0.4
26/08:30am 19.9 18.6 9.3 50 5.6 W 6 11 3 6 1013.8 1013.7 0.4
26/08:00am 18.0 16.8 9.7 58 4.4 NNE 6 9 3 5 1013.7 1013.6 0.4
26/07:30am 17.2 17.3 10.2 63 3.7 CALM 0 0 0 0 1013.4 1013.3 0.4
26/07:00am 15.2 15.1 9.6 69 2.9 CALM 0 0 0 0 1013.1 1013.0 0.4
26/06:30am 13.3 12.8 9.4 77 2.0 NW 2 7 1 4 1012.6 1012.5 0.4
26/06:00am 10.6 9.9 8.6 87 1.0 NNE 2 6 1 3 1012.3 1012.2 0.4
26/05:30am 10.2 9.7 7.9 86 1.1 CALM 0 6 0 3 1011.8 1011.7 0.4
26/05:00am 9.9 6.5 7.8 87 1.0 WNW 15 15 8 8 1011.6 1011.5 0.4
26/04:30am 9.7 6.3 7.6 87 1.0 NW 15 17 8 9 1011.4 1011.3 0.4
26/04:00am 12.0 10.5 8.6 80 1.7 WNW 6 7 3 4 1011.1 1011.0 0.4
26/03:30am 12.1 10.6 8.5 78 1.8 SW 6 11 3 6 1010.9 1010.8 0.4
26/03:00am 11.8 9.3 8.4 80 1.7 NW 11 13 6 7 1010.9 1010.8 0.4
26/02:30am 13.0 10.9 8.2 72 2.4 WNW 9 13 5 7 1010.9 1010.8 0.4
26/02:00am 15.5 12.5 7.9 60 3.8 W 13 17 7 9 1010.8 1010.7 0.4
26/01:30am 15.2 12.6 7.6 60 3.8 N 11 13 6 7 1010.9 1010.8 0.4
26/01:00am 16.2 13.7 8.1 58 4.1 WSW 11 15 6 8 1010.9 1010.8 0.4
26/12:30am 16.6 14.4 7.9 56 4.4 WNW 9 13 5 7 1011.0 1010.9 0.4
26/12:00am 17.7 15.8 7.4 51 5.2 W 7 15 4 8 1011.2 1011.1 0.4
 
Date/Time
EST
Temp
°C
App
Temp
°C
Dew
Point
°C
Rel
Hum
%
Delta-T
°C
Wind Press
QNH
hPa
Press
MSL
hPa
Rain since
9am
mm
Dir  Spd
km/h
Gust
km/h
Spd
kts
Gust
kts
25/11:30pm 17.7 13.9 7.6 51 5.1 WSW 17 20 9 11 1011.0 1010.9 0.4
25/11:00pm 17.2 14.5 7.5 53 4.9 W 11 15 6 8 1011.2 1011.1 0.4
25/10:30pm 18.9 13.6 7.0 46 6.0 WSW 24 30 13 16 1010.6 1010.5 0.4
25/10:00pm 19.7 16.4 6.6 42 6.6 WNW 13 15 7 8 1010.7 1010.6 0.4

Latest Capital City Observations: Canberra | Sydney | Melbourne | Brisbane | Adelaide | Perth | Hobart | Darwin

Other Formats:

Comma delimited format used in spreadsheet applications
http://www.bom.gov.au/fwo/IDQ60901/IDQ60901.94568.axf

JavaScript Object Notation format (JSON) in row-major order
http://www.bom.gov.au/fwo/IDQ60901/IDQ60901.94568.json